sensor_id;sensor_type;location;lat;lon;timestamp;P1;durP1;ratioP1;P2;durP2;ratioP2
42186;SDS011;27858;51.414;0.018;2022-11-09T00:09:40;17.67;;;3.58;;
42186;SDS011;27858;51.414;0.018;2022-11-09T00:12:07;16.27;;;2.67;;
42186;SDS011;27858;51.414;0.018;2022-11-09T00:14:34;8.43;;;2.60;;
42186;SDS011;27858;51.414;0.018;2022-11-09T00:17:02;10.25;;;2.45;;
42186;SDS011;27858;51.414;0.018;2022-11-09T00:19:28;22.27;;;3.75;;
42186;SDS011;27858;51.414;0.018;2022-11-09T00:21:55;17.48;;;4.00;;
42186;SDS011;27858;51.414;0.018;2022-11-09T00:24:22;12.63;;;3.83;;
42186;SDS011;27858;51.414;0.018;2022-11-09T00:26:49;16.48;;;4.20;;
42186;SDS011;27858;51.414;0.018;2022-11-09T00:29:16;14.52;;;2.22;;
42186;SDS011;27858;51.414;0.018;2022-11-09T00:31:43;12.73;;;2.85;;
42186;SDS011;27858;51.414;0.018;2022-11-09T00:34:13;13.35;;;2.75;;
42186;SDS011;27858;51.414;0.018;2022-11-09T00:36:40;16.83;;;3.72;;
42186;SDS011;27858;51.414;0.018;2022-11-09T00:39:07;16.38;;;3.00;;
42186;SDS011;27858;51.414;0.018;2022-11-09T00:41:34;13.07;;;2.92;;
42186;SDS011;27858;51.414;0.018;2022-11-09T00:44:01;12.93;;;2.92;;
42186;SDS011;27858;51.414;0.018;2022-11-09T00:46:28;8.88;;;3.05;;
42186;SDS011;27858;51.414;0.018;2022-11-09T00:48:55;17.88;;;3.83;;
42186;SDS011;27858;51.414;0.018;2022-11-09T00:51:22;7.57;;;2.05;;
42186;SDS011;27858;51.414;0.018;2022-11-09T00:53:49;15.55;;;3.30;;
42186;SDS011;27858;51.414;0.018;2022-11-09T00:56:19;8.70;;;2.20;;
42186;SDS011;27858;51.414;0.018;2022-11-09T00:58:47;12.90;;;2.65;;
42186;SDS011;27858;51.414;0.018;2022-11-09T05:02:30;13.50;;;2.78;;
42186;SDS011;27858;51.414;0.018;2022-11-09T05:04:57;4.82;;;1.17;;
42186;SDS011;27858;51.414;0.018;2022-11-09T05:07:24;8.15;;;1.38;;
42186;SDS011;27858;51.414;0.018;2022-11-09T05:09:51;8.30;;;1.30;;
42186;SDS011;27858;51.414;0.018;2022-11-09T05:12:18;4.35;;;1.00;;
42186;SDS011;27858;51.414;0.018;2022-11-09T05:14:45;16.80;;;1.13;;
42186;SDS011;27858;51.414;0.018;2022-11-09T05:17:11;5.45;;;2.42;;
42186;SDS011;27858;51.414;0.018;2022-11-09T05:19:38;10.32;;;2.35;;
42186;SDS011;27858;51.414;0.018;2022-11-09T05:22:05;4.68;;;1.33;;
42186;SDS011;27858;51.414;0.018;2022-11-09T05:24:50;3.28;;;0.73;;
42186;SDS011;27858;51.414;0.018;2022-11-09T05:27:17;3.00;;;0.73;;
42186;SDS011;27858;51.414;0.018;2022-11-09T05:29:44;4.97;;;1.25;;
42186;SDS011;27858;51.414;0.018;2022-11-09T05:32:11;2.70;;;0.90;;
42186;SDS011;27858;51.414;0.018;2022-11-09T05:34:37;8.52;;;1.10;;
42186;SDS011;27858;51.414;0.018;2022-11-09T05:37:04;3.55;;;0.98;;
42186;SDS011;27858;51.414;0.018;2022-11-09T05:39:34;2.45;;;0.85;;
42186;SDS011;27858;51.414;0.018;2022-11-09T05:42:01;9.52;;;2.45;;
42186;SDS011;27858;51.414;0.018;2022-11-09T05:44:28;7.25;;;1.77;;
42186;SDS011;27858;51.414;0.018;2022-11-09T05:46:55;8.98;;;2.45;;
42186;SDS011;27858;51.414;0.018;2022-11-09T05:49:22;4.47;;;1.02;;
42186;SDS011;27858;51.414;0.018;2022-11-09T05:51:49;4.97;;;2.00;;
42186;SDS011;27858;51.414;0.018;2022-11-09T05:54:16;5.10;;;1.02;;
42186;SDS011;27858;51.414;0.018;2022-11-09T05:56:42;4.05;;;1.08;;
42186;SDS011;27858;51.414;0.018;2022-11-09T05:59:09;6.70;;;0.88;;
42186;SDS011;27858;51.414;0.018;2022-11-09T06:01:36;6.15;;;1.23;;
42186;SDS011;27858;51.414;0.018;2022-11-09T06:04:03;4.18;;;0.55;;
42186;SDS011;27858;51.414;0.018;2022-11-09T06:06:30;3.35;;;1.30;;
42186;SDS011;27858;51.414;0.018;2022-11-09T06:08:57;2.13;;;0.75;;
42186;SDS011;27858;51.414;0.018;2022-11-09T06:11:24;2.13;;;0.98;;
42186;SDS011;27858;51.414;0.018;2022-11-09T06:13:51;3.20;;;0.82;;
42186;SDS011;27858;51.414;0.018;2022-11-09T06:16:18;4.97;;;1.00;;
42186;SDS011;27858;51.414;0.018;2022-11-09T06:18:45;7.55;;;0.98;;
42186;SDS011;27858;51.414;0.018;2022-11-09T06:21:12;2.58;;;0.90;;
42186;SDS011;27858;51.414;0.018;2022-11-09T06:23:39;7.22;;;1.27;;
42186;SDS011;27858;51.414;0.018;2022-11-09T06:26:09;2.78;;;1.08;;
42186;SDS011;27858;51.414;0.018;2022-11-09T06:28:37;2.60;;;0.70;;
42186;SDS011;27858;51.414;0.018;2022-11-09T06:31:05;7.50;;;1.75;;
42186;SDS011;27858;51.414;0.018;2022-11-09T06:33:34;0.95;;;0.57;;
42186;SDS011;27858;51.414;0.018;2022-11-09T06:36:02;1.88;;;0.47;;
42186;SDS011;27858;51.414;0.018;2022-11-09T06:38:29;1.90;;;0.63;;
42186;SDS011;27858;51.414;0.018;2022-11-09T06:40:57;1.45;;;0.40;;
42186;SDS011;27858;51.414;0.018;2022-11-09T06:43:25;4.95;;;0.80;;
42186;SDS011;27858;51.414;0.018;2022-11-09T06:45:52;2.30;;;0.73;;
42186;SDS011;27858;51.414;0.018;2022-11-09T06:48:19;1.95;;;0.47;;
42186;SDS011;27858;51.414;0.018;2022-11-09T06:50:47;2.13;;;0.90;;
42186;SDS011;27858;51.414;0.018;2022-11-09T06:53:14;5.88;;;1.15;;
42186;SDS011;27858;51.414;0.018;2022-11-09T06:55:42;2.63;;;0.88;;
42186;SDS011;27858;51.414;0.018;2022-11-09T06:58:15;2.65;;;0.90;;
42186;SDS011;27858;51.414;0.018;2022-11-09T07:00:43;3.17;;;1.25;;
42186;SDS011;27858;51.414;0.018;2022-11-09T07:03:14;3.05;;;0.45;;
42186;SDS011;27858;51.414;0.018;2022-11-09T07:05:42;4.03;;;1.08;;
42186;SDS011;27858;51.414;0.018;2022-11-09T07:08:09;4.45;;;0.52;;
42186;SDS011;27858;51.414;0.018;2022-11-09T07:10:37;7.50;;;1.00;;
42186;SDS011;27858;51.414;0.018;2022-11-09T07:13:05;8.70;;;0.95;;
42186;SDS011;27858;51.414;0.018;2022-11-09T07:15:33;2.30;;;0.65;;
42186;SDS011;27858;51.414;0.018;2022-11-09T07:18:01;4.05;;;1.30;;
42186;SDS011;27858;51.414;0.018;2022-11-09T07:20:31;5.50;;;0.63;;
42186;SDS011;27858;51.414;0.018;2022-11-09T07:22:58;6.78;;;1.40;;
42186;SDS011;27858;51.414;0.018;2022-11-09T07:25:25;3.13;;;0.88;;
42186;SDS011;27858;51.414;0.018;2022-11-09T07:27:52;3.67;;;1.10;;
42186;SDS011;27858;51.414;0.018;2022-11-09T07:30:19;4.55;;;1.02;;
42186;SDS011;27858;51.414;0.018;2022-11-09T07:32:46;2.78;;;1.15;;
42186;SDS011;27858;51.414;0.018;2022-11-09T07:35:33;3.97;;;0.75;;
42186;SDS011;27858;51.414;0.018;2022-11-09T07:38:00;4.05;;;1.08;;
42186;SDS011;27858;51.414;0.018;2022-11-09T07:40:27;6.43;;;1.38;;
42186;SDS011;27858;51.414;0.018;2022-11-09T07:42:58;3.95;;;0.50;;
42186;SDS011;27858;51.414;0.018;2022-11-09T07:45:26;2.80;;;0.93;;
42186;SDS011;27858;51.414;0.018;2022-11-09T07:47:58;1.38;;;0.68;;
42186;SDS011;27858;51.414;0.018;2022-11-09T07:50:30;7.15;;;0.70;;
42186;SDS011;27858;51.414;0.018;2022-11-09T07:52:58;0.90;;;0.40;;
42186;SDS011;27858;51.414;0.018;2022-11-09T07:55:26;2.35;;;0.85;;
42186;SDS011;27858;51.414;0.018;2022-11-09T07:57:55;7.20;;;1.15;;
42186;SDS011;27858;51.414;0.018;2022-11-09T08:00:27;2.63;;;1.05;;
42186;SDS011;27858;51.414;0.018;2022-11-09T08:02:56;3.70;;;0.63;;
42186;SDS011;27858;51.414;0.018;2022-11-09T08:05:23;6.85;;;0.60;;
42186;SDS011;27858;51.414;0.018;2022-11-09T08:07:58;8.90;;;1.52;;
42186;SDS011;27858;51.414;0.018;2022-11-09T08:10:27;0.68;;;0.32;;
42186;SDS011;27858;51.414;0.018;2022-11-09T08:12:56;3.17;;;1.10;;
42186;SDS011;27858;51.414;0.018;2022-11-09T08:15:24;4.75;;;0.70;;
42186;SDS011;27858;51.414;0.018;2022-11-09T08:17:52;6.90;;;0.80;;
42186;SDS011;27858;51.414;0.018;2022-11-09T08:20:19;4.50;;;1.33;;
42186;SDS011;27858;51.414;0.018;2022-11-09T08:22:46;7.78;;;1.42;;
42186;SDS011;27858;51.414;0.018;2022-11-09T08:25:13;6.45;;;1.15;;
42186;SDS011;27858;51.414;0.018;2022-11-09T08:27:40;4.18;;;1.15;;
42186;SDS011;27858;51.414;0.018;2022-11-09T08:30:14;2.53;;;0.82;;
42186;SDS011;27858;51.414;0.018;2022-11-09T08:32:44;6.28;;;0.85;;
42186;SDS011;27858;51.414;0.018;2022-11-09T08:35:12;1.75;;;0.65;;
42186;SDS011;27858;51.414;0.018;2022-11-09T08:37:43;1.50;;;0.90;;
42186;SDS011;27858;51.414;0.018;2022-11-09T08:40:12;2.60;;;0.70;;
42186;SDS011;27858;51.414;0.018;2022-11-09T08:42:41;1.63;;;0.75;;
42186;SDS011;27858;51.414;0.018;2022-11-09T08:45:08;1.83;;;0.50;;
42186;SDS011;27858;51.414;0.018;2022-11-09T08:47:36;7.10;;;1.33;;
42186;SDS011;27858;51.414;0.018;2022-11-09T08:50:04;5.80;;;1.75;;
42186;SDS011;27858;51.414;0.018;2022-11-09T08:52:32;3.28;;;0.70;;
42186;SDS011;27858;51.414;0.018;2022-11-09T08:54:59;5.20;;;0.95;;
42186;SDS011;27858;51.414;0.018;2022-11-09T08:57:26;3.70;;;0.70;;
42186;SDS011;27858;51.414;0.018;2022-11-09T08:59:54;3.63;;;0.45;;
42186;SDS011;27858;51.414;0.018;2022-11-09T09:02:21;2.40;;;0.95;;
42186;SDS011;27858;51.414;0.018;2022-11-09T09:04:48;2.25;;;0.60;;
42186;SDS011;27858;51.414;0.018;2022-11-09T09:07:15;3.45;;;0.75;;
42186;SDS011;27858;51.414;0.018;2022-11-09T09:09:45;2.85;;;1.23;;
42186;SDS011;27858;51.414;0.018;2022-11-09T09:12:11;4.10;;;0.82;;
42186;SDS011;27858;51.414;0.018;2022-11-09T09:14:38;5.60;;;0.93;;
42186;SDS011;27858;51.414;0.018;2022-11-09T09:17:05;1.10;;;0.50;;
42186;SDS011;27858;51.414;0.018;2022-11-09T09:19:32;5.30;;;0.93;;
42186;SDS011;27858;51.414;0.018;2022-11-09T09:22:00;1.77;;;0.88;;
42186;SDS011;27858;51.414;0.018;2022-11-09T09:24:27;0.90;;;0.47;;
42186;SDS011;27858;51.414;0.018;2022-11-09T09:26:54;2.88;;;0.50;;
42186;SDS011;27858;51.414;0.018;2022-11-09T09:29:21;4.72;;;0.75;;
42186;SDS011;27858;51.414;0.018;2022-11-09T09:31:48;0.45;;;0.30;;
42186;SDS011;27858;51.414;0.018;2022-11-09T09:34:15;1.70;;;0.65;;
42186;SDS011;27858;51.414;0.018;2022-11-09T09:36:42;2.15;;;0.65;;
42186;SDS011;27858;51.414;0.018;2022-11-09T09:39:13;2.50;;;0.57;;
42186;SDS011;27858;51.414;0.018;2022-11-09T09:41:59;2.80;;;0.60;;
42186;SDS011;27858;51.414;0.018;2022-11-09T09:44:48;4.72;;;0.57;;
42186;SDS011;27858;51.414;0.018;2022-11-09T09:50:12;3.00;;;0.70;;
42186;SDS011;27858;51.414;0.018;2022-11-09T09:56:09;1.98;;;0.43;;
42186;SDS011;27858;51.414;0.018;2022-11-09T10:01:37;8.27;;;1.38;;
42186;SDS011;27858;51.414;0.018;2022-11-09T10:04:13;11.05;;;1.30;;
42186;SDS011;27858;51.414;0.018;2022-11-09T10:12:47;1.63;;;0.35;;
42186;SDS011;27858;51.414;0.018;2022-11-09T10:15:26;2.15;;;0.90;;
42186;SDS011;27858;51.414;0.018;2022-11-09T10:18:44;3.65;;;0.47;;
42186;SDS011;27858;51.414;0.018;2022-11-09T10:26:42;10.95;;;1.98;;
42186;SDS011;27858;51.414;0.018;2022-11-09T10:29:20;3.67;;;1.58;;
42186;SDS011;27858;51.414;0.018;2022-11-09T10:31:51;3.33;;;1.20;;
42186;SDS011;27858;51.414;0.018;2022-11-09T10:34:22;6.72;;;0.95;;
42186;SDS011;27858;51.414;0.018;2022-11-09T10:39:34;4.20;;;1.48;;
42186;SDS011;27858;51.414;0.018;2022-11-09T10:42:23;1.08;;;0.43;;
42186;SDS011;27858;51.414;0.018;2022-11-09T10:44:50;6.78;;;1.42;;
42186;SDS011;27858;51.414;0.018;2022-11-09T10:47:17;3.45;;;0.68;;
42186;SDS011;27858;51.414;0.018;2022-11-09T10:49:44;6.85;;;0.70;;
42186;SDS011;27858;51.414;0.018;2022-11-09T10:52:45;3.33;;;0.73;;
42186;SDS011;27858;51.414;0.018;2022-11-09T10:55:21;3.00;;;0.90;;
42186;SDS011;27858;51.414;0.018;2022-11-09T10:57:59;1.95;;;0.88;;
42186;SDS011;27858;51.414;0.018;2022-11-09T11:03:29;4.20;;;1.52;;
42186;SDS011;27858;51.414;0.018;2022-11-09T11:09:35;2.92;;;0.40;;
42186;SDS011;27858;51.414;0.018;2022-11-09T11:11:36;5.22;;;0.68;;
42186;SDS011;27858;51.414;0.018;2022-11-09T11:16:49;4.25;;;1.33;;
42186;SDS011;27858;51.414;0.018;2022-11-09T11:27:52;3.65;;;1.33;;
42186;SDS011;27858;51.414;0.018;2022-11-09T11:30:32;4.57;;;0.95;;
42186;SDS011;27858;51.414;0.018;2022-11-09T11:33:01;6.45;;;1.48;;
42186;SDS011;27858;51.414;0.018;2022-11-09T11:35:48;1.88;;;0.95;;
42186;SDS011;27858;51.414;0.018;2022-11-09T11:43:38;4.07;;;0.77;;
42186;SDS011;27858;51.414;0.018;2022-11-09T11:52:05;1.83;;;0.57;;
42186;SDS011;27858;51.414;0.018;2022-11-09T12:01:11;4.68;;;0.57;;
42186;SDS011;27858;51.414;0.018;2022-11-09T12:07:39;3.38;;;0.73;;
42186;SDS011;27858;51.414;0.018;2022-11-09T12:19:18;1.35;;;0.77;;
42186;SDS011;27858;51.414;0.018;2022-11-09T12:27:50;3.95;;;1.42;;
42186;SDS011;27858;51.414;0.018;2022-11-09T12:30:15;1.80;;;0.52;;
42186;SDS011;27858;51.414;0.018;2022-11-09T12:32:53;8.13;;;1.08;;
42186;SDS011;27858;51.414;0.018;2022-11-09T12:35:35;3.05;;;0.82;;
42186;SDS011;27858;51.414;0.018;2022-11-09T12:38:12;2.97;;;0.88;;
42186;SDS011;27858;51.414;0.018;2022-11-09T12:40:44;3.03;;;0.50;;
42186;SDS011;27858;51.414;0.018;2022-11-09T12:46:17;5.90;;;0.75;;
42186;SDS011;27858;51.414;0.018;2022-11-09T12:48:47;1.88;;;0.80;;
42186;SDS011;27858;51.414;0.018;2022-11-09T12:51:15;3.17;;;0.65;;
42186;SDS011;27858;51.414;0.018;2022-11-09T12:53:42;5.32;;;1.02;;
42186;SDS011;27858;51.414;0.018;2022-11-09T12:56:21;3.45;;;1.27;;
42186;SDS011;27858;51.414;0.018;2022-11-09T12:58:52;1.03;;;0.47;;
42186;SDS011;27858;51.414;0.018;2022-11-09T13:01:57;3.47;;;1.33;;
42186;SDS011;27858;51.414;0.018;2022-11-09T13:04:26;4.47;;;1.20;;
42186;SDS011;27858;51.414;0.018;2022-11-09T13:09:30;2.88;;;1.38;;
42186;SDS011;27858;51.414;0.018;2022-11-09T13:17:54;2.80;;;1.08;;
42186;SDS011;27858;51.414;0.018;2022-11-09T13:23:27;2.00;;;0.80;;
42186;SDS011;27858;51.414;0.018;2022-11-09T13:26:53;5.28;;;1.23;;
42186;SDS011;27858;51.414;0.018;2022-11-09T13:34:44;4.97;;;0.63;;
42186;SDS011;27858;51.414;0.018;2022-11-09T13:48:19;7.53;;;1.42;;
42186;SDS011;27858;51.414;0.018;2022-11-09T13:50:51;5.20;;;1.08;;
42186;SDS011;27858;51.414;0.018;2022-11-09T13:56:14;2.78;;;1.40;;
42186;SDS011;27858;51.414;0.018;2022-11-09T13:59:08;3.83;;;0.93;;
42186;SDS011;27858;51.414;0.018;2022-11-09T14:04:36;5.55;;;1.17;;
42186;SDS011;27858;51.414;0.018;2022-11-09T14:07:11;9.38;;;1.25;;
42186;SDS011;27858;51.414;0.018;2022-11-09T14:18:21;4.57;;;0.80;;
42186;SDS011;27858;51.414;0.018;2022-11-09T14:23:32;6.07;;;1.77;;
42186;SDS011;27858;51.414;0.018;2022-11-09T14:26:08;1.98;;;0.73;;
42186;SDS011;27858;51.414;0.018;2022-11-09T14:28:41;6.00;;;1.02;;
42186;SDS011;27858;51.414;0.018;2022-11-09T14:34:11;3.40;;;1.17;;
42186;SDS011;27858;51.414;0.018;2022-11-09T14:36:42;1.95;;;0.80;;
42186;SDS011;27858;51.414;0.018;2022-11-09T14:39:22;3.92;;;2.00;;
42186;SDS011;27858;51.414;0.018;2022-11-09T14:41:55;10.15;;;2.03;;
42186;SDS011;27858;51.414;0.018;2022-11-09T14:44:32;3.15;;;1.13;;
42186;SDS011;27858;51.414;0.018;2022-11-09T14:47:14;4.68;;;1.45;;
42186;SDS011;27858;51.414;0.018;2022-11-09T14:49:47;6.63;;;1.48;;
42186;SDS011;27858;51.414;0.018;2022-11-09T14:52:15;3.85;;;1.00;;
42186;SDS011;27858;51.414;0.018;2022-11-09T14:54:46;0.80;;;0.80;;
42186;SDS011;27858;51.414;0.018;2022-11-09T14:57:15;2.05;;;0.73;;
42186;SDS011;27858;51.414;0.018;2022-11-09T14:59:43;5.07;;;1.10;;
42186;SDS011;27858;51.414;0.018;2022-11-09T15:02:11;8.13;;;1.40;;
42186;SDS011;27858;51.414;0.018;2022-11-09T15:04:53;4.30;;;0.75;;
42186;SDS011;27858;51.414;0.018;2022-11-09T15:07:23;3.42;;;0.63;;
42186;SDS011;27858;51.414;0.018;2022-11-09T15:09:56;2.72;;;0.68;;
42186;SDS011;27858;51.414;0.018;2022-11-09T15:12:26;1.95;;;0.80;;
42186;SDS011;27858;51.414;0.018;2022-11-09T15:14:55;3.75;;;1.00;;
42186;SDS011;27858;51.414;0.018;2022-11-09T15:17:32;4.53;;;0.85;;
42186;SDS011;27858;51.414;0.018;2022-11-09T15:30:43;4.28;;;1.58;;
42186;SDS011;27858;51.414;0.018;2022-11-09T15:35:47;2.47;;;1.45;;
42186;SDS011;27858;51.414;0.018;2022-11-09T15:38:35;4.60;;;1.08;;
42186;SDS011;27858;51.414;0.018;2022-11-09T15:41:17;4.93;;;1.77;;
42186;SDS011;27858;51.414;0.018;2022-11-09T15:43:46;4.00;;;1.03;;
42186;SDS011;27858;51.414;0.018;2022-11-09T15:46:13;3.58;;;0.93;;
42186;SDS011;27858;51.414;0.018;2022-11-09T15:48:48;3.28;;;0.95;;
42186;SDS011;27858;51.414;0.018;2022-11-09T15:51:16;4.68;;;1.67;;
42186;SDS011;27858;51.414;0.018;2022-11-09T15:53:43;3.17;;;0.93;;
42186;SDS011;27858;51.414;0.018;2022-11-09T15:56:15;3.60;;;1.08;;
42186;SDS011;27858;51.414;0.018;2022-11-09T15:58:44;3.45;;;0.80;;
42186;SDS011;27858;51.414;0.018;2022-11-09T16:01:14;2.10;;;0.90;;
42186;SDS011;27858;51.414;0.018;2022-11-09T16:03:41;5.97;;;1.65;;
42186;SDS011;27858;51.414;0.018;2022-11-09T16:06:08;5.03;;;1.27;;
42186;SDS011;27858;51.414;0.018;2022-11-09T16:08:36;2.08;;;0.90;;
42186;SDS011;27858;51.414;0.018;2022-11-09T16:11:04;3.85;;;1.33;;
42186;SDS011;27858;51.414;0.018;2022-11-09T16:13:32;6.13;;;1.60;;
42186;SDS011;27858;51.414;0.018;2022-11-09T16:16:00;4.15;;;1.40;;
42186;SDS011;27858;51.414;0.018;2022-11-09T16:18:34;6.13;;;1.20;;
42186;SDS011;27858;51.414;0.018;2022-11-09T16:21:11;3.25;;;0.80;;
42186;SDS011;27858;51.414;0.018;2022-11-09T16:23:40;3.70;;;0.90;;
42186;SDS011;27858;51.414;0.018;2022-11-09T16:26:08;4.90;;;1.13;;
42186;SDS011;27858;51.414;0.018;2022-11-09T16:28:36;4.38;;;1.50;;
42186;SDS011;27858;51.414;0.018;2022-11-09T16:31:05;4.97;;;1.70;;
42186;SDS011;27858;51.414;0.018;2022-11-09T16:33:32;5.85;;;1.20;;
42186;SDS011;27858;51.414;0.018;2022-11-09T16:36:01;3.90;;;1.25;;
42186;SDS011;27858;51.414;0.018;2022-11-09T16:38:43;6.85;;;1.75;;
42186;SDS011;27858;51.414;0.018;2022-11-09T16:41:14;18.65;;;2.63;;
42186;SDS011;27858;51.414;0.018;2022-11-09T16:43:42;5.68;;;1.58;;
42186;SDS011;27858;51.414;0.018;2022-11-09T16:46:10;2.92;;;1.20;;
42186;SDS011;27858;51.414;0.018;2022-11-09T16:48:39;1.73;;;0.98;;
42186;SDS011;27858;51.414;0.018;2022-11-09T16:51:06;7.00;;;1.15;;
42186;SDS011;27858;51.414;0.018;2022-11-09T16:53:33;1.17;;;0.70;;
42186;SDS011;27858;51.414;0.018;2022-11-09T16:55:59;4.47;;;0.77;;
42186;SDS011;27858;51.414;0.018;2022-11-09T16:58:26;4.40;;;1.50;;
42186;SDS011;27858;51.414;0.018;2022-11-09T17:00:53;2.15;;;1.00;;
42186;SDS011;27858;51.414;0.018;2022-11-09T17:03:37;3.85;;;1.13;;
42186;SDS011;27858;51.414;0.018;2022-11-09T17:06:04;4.90;;;1.33;;
42186;SDS011;27858;51.414;0.018;2022-11-09T17:08:36;5.37;;;1.20;;
42186;SDS011;27858;51.414;0.018;2022-11-09T17:11:11;6.85;;;2.42;;
42186;SDS011;27858;51.414;0.018;2022-11-09T17:13:40;4.20;;;1.73;;
42186;SDS011;27858;51.414;0.018;2022-11-09T17:16:08;5.35;;;1.08;;
42186;SDS011;27858;51.414;0.018;2022-11-09T17:18:37;1.70;;;0.88;;
42186;SDS011;27858;51.414;0.018;2022-11-09T17:21:09;4.47;;;1.88;;
42186;SDS011;27858;51.414;0.018;2022-11-09T17:23:40;4.50;;;1.55;;
42186;SDS011;27858;51.414;0.018;2022-11-09T17:26:08;9.50;;;2.30;;
42186;SDS011;27858;51.414;0.018;2022-11-09T17:28:35;4.55;;;1.77;;
42186;SDS011;27858;51.414;0.018;2022-11-09T17:31:09;9.52;;;2.17;;
42186;SDS011;27858;51.414;0.018;2022-11-09T17:33:41;2.65;;;1.17;;
42186;SDS011;27858;51.414;0.018;2022-11-09T17:36:09;1.85;;;1.23;;
42186;SDS011;27858;51.414;0.018;2022-11-09T17:38:54;7.15;;;2.00;;
42186;SDS011;27858;51.414;0.018;2022-11-09T17:41:21;5.32;;;1.83;;
42186;SDS011;27858;51.414;0.018;2022-11-09T17:43:48;7.35;;;1.75;;
42186;SDS011;27858;51.414;0.018;2022-11-09T17:46:19;2.97;;;1.27;;
42186;SDS011;27858;51.414;0.018;2022-11-09T17:48:49;6.32;;;1.75;;
42186;SDS011;27858;51.414;0.018;2022-11-09T17:51:17;5.60;;;2.15;;
42186;SDS011;27858;51.414;0.018;2022-11-09T17:53:45;1.83;;;0.82;;
42186;SDS011;27858;51.414;0.018;2022-11-09T17:56:12;7.78;;;1.55;;
42186;SDS011;27858;51.414;0.018;2022-11-09T17:58:40;3.90;;;1.75;;
42186;SDS011;27858;51.414;0.018;2022-11-09T18:01:09;16.05;;;3.03;;
42186;SDS011;27858;51.414;0.018;2022-11-09T18:03:38;4.72;;;1.40;;
42186;SDS011;27858;51.414;0.018;2022-11-09T18:06:23;9.48;;;3.25;;
42186;SDS011;27858;51.414;0.018;2022-11-09T18:08:50;6.45;;;1.40;;
42186;SDS011;27858;51.414;0.018;2022-11-09T18:11:37;3.67;;;1.42;;
42186;SDS011;27858;51.414;0.018;2022-11-09T18:14:04;7.35;;;2.20;;
42186;SDS011;27858;51.414;0.018;2022-11-09T18:16:32;3.75;;;1.42;;
42186;SDS011;27858;51.414;0.018;2022-11-09T18:18:59;5.15;;;1.48;;
42186;SDS011;27858;51.414;0.018;2022-11-09T18:21:28;5.07;;;1.33;;
42186;SDS011;27858;51.414;0.018;2022-11-09T18:23:55;7.43;;;2.55;;
42186;SDS011;27858;51.414;0.018;2022-11-09T18:26:22;6.65;;;1.42;;
42186;SDS011;27858;51.414;0.018;2022-11-09T18:28:49;5.97;;;1.58;;
42186;SDS011;27858;51.414;0.018;2022-11-09T18:31:16;5.22;;;2.05;;
42186;SDS011;27858;51.414;0.018;2022-11-09T18:33:43;5.32;;;1.80;;
42186;SDS011;27858;51.414;0.018;2022-11-09T18:36:11;4.47;;;2.00;;
42186;SDS011;27858;51.414;0.018;2022-11-09T18:38:41;5.07;;;2.40;;
42186;SDS011;27858;51.414;0.018;2022-11-09T18:41:16;10.43;;;1.83;;
42186;SDS011;27858;51.414;0.018;2022-11-09T18:43:48;8.07;;;1.63;;
42186;SDS011;27858;51.414;0.018;2022-11-09T18:46:17;5.25;;;1.40;;
42186;SDS011;27858;51.414;0.018;2022-11-09T18:48:48;7.50;;;2.22;;
42186;SDS011;27858;51.414;0.018;2022-11-09T18:51:18;4.88;;;2.03;;
42186;SDS011;27858;51.414;0.018;2022-11-09T18:53:46;3.35;;;1.67;;
42186;SDS011;27858;51.414;0.018;2022-11-09T18:56:15;4.18;;;2.55;;
42186;SDS011;27858;51.414;0.018;2022-11-09T18:58:49;6.55;;;2.50;;
42186;SDS011;27858;51.414;0.018;2022-11-09T19:01:18;7.25;;;2.70;;
42186;SDS011;27858;51.414;0.018;2022-11-09T19:03:45;12.02;;;5.63;;
42186;SDS011;27858;51.414;0.018;2022-11-09T19:06:14;9.40;;;3.95;;
42186;SDS011;27858;51.414;0.018;2022-11-09T19:08:42;10.30;;;5.07;;
42186;SDS011;27858;51.414;0.018;2022-11-09T19:11:29;7.28;;;2.95;;
42186;SDS011;27858;51.414;0.018;2022-11-09T19:13:56;6.03;;;2.38;;
42186;SDS011;27858;51.414;0.018;2022-11-09T19:16:24;11.38;;;2.05;;
42186;SDS011;27858;51.414;0.018;2022-11-09T19:18:52;5.13;;;1.77;;
42186;SDS011;27858;51.414;0.018;2022-11-09T19:24:19;7.05;;;1.85;;
42186;SDS011;27858;51.414;0.018;2022-11-09T19:26:47;5.22;;;1.55;;
42186;SDS011;27858;51.414;0.018;2022-11-09T19:29:18;6.15;;;1.90;;
42186;SDS011;27858;51.414;0.018;2022-11-09T19:31:45;3.55;;;2.40;;
42186;SDS011;27858;51.414;0.018;2022-11-09T19:34:15;4.10;;;1.67;;
42186;SDS011;27858;51.414;0.018;2022-11-09T19:36:44;3.85;;;1.98;;
42186;SDS011;27858;51.414;0.018;2022-11-09T19:39:14;4.57;;;1.48;;
42186;SDS011;27858;51.414;0.018;2022-11-09T19:41:41;7.30;;;2.00;;
42186;SDS011;27858;51.414;0.018;2022-11-09T19:44:09;8.93;;;1.92;;
42186;SDS011;27858;51.414;0.018;2022-11-09T19:46:38;10.98;;;2.88;;
42186;SDS011;27858;51.414;0.018;2022-11-09T19:49:05;6.95;;;2.55;;
42186;SDS011;27858;51.414;0.018;2022-11-09T19:51:32;4.65;;;2.20;;
42186;SDS011;27858;51.414;0.018;2022-11-09T19:54:00;7.65;;;2.33;;
42186;SDS011;27858;51.414;0.018;2022-11-09T19:56:29;6.82;;;1.38;;
42186;SDS011;27858;51.414;0.018;2022-11-09T19:58:58;4.47;;;1.77;;
42186;SDS011;27858;51.414;0.018;2022-11-09T20:01:26;18.90;;;2.78;;
42186;SDS011;27858;51.414;0.018;2022-11-09T20:03:56;11.20;;;2.58;;
42186;SDS011;27858;51.414;0.018;2022-11-09T20:06:24;8.25;;;1.98;;
42186;SDS011;27858;51.414;0.018;2022-11-09T20:08:52;12.82;;;2.42;;
42186;SDS011;27858;51.414;0.018;2022-11-09T20:11:20;8.73;;;2.45;;
42186;SDS011;27858;51.414;0.018;2022-11-09T20:14:07;7.68;;;2.03;;
42186;SDS011;27858;51.414;0.018;2022-11-09T20:16:35;5.43;;;1.67;;
42186;SDS011;27858;51.414;0.018;2022-11-09T20:19:04;6.28;;;2.25;;
42186;SDS011;27858;51.414;0.018;2022-11-09T20:21:35;11.48;;;3.13;;
42186;SDS011;27858;51.414;0.018;2022-11-09T20:24:02;4.78;;;2.05;;
42186;SDS011;27858;51.414;0.018;2022-11-09T20:26:29;9.38;;;1.92;;
42186;SDS011;27858;51.414;0.018;2022-11-09T20:28:56;9.52;;;2.35;;
42186;SDS011;27858;51.414;0.018;2022-11-09T20:31:23;6.97;;;2.00;;
42186;SDS011;27858;51.414;0.018;2022-11-09T20:33:50;11.20;;;3.03;;
42186;SDS011;27858;51.414;0.018;2022-11-09T20:36:18;7.45;;;2.25;;
42186;SDS011;27858;51.414;0.018;2022-11-09T20:38:45;8.05;;;1.50;;
42186;SDS011;27858;51.414;0.018;2022-11-09T20:41:12;8.98;;;2.40;;
42186;SDS011;27858;51.414;0.018;2022-11-09T20:43:39;8.90;;;2.78;;
42186;SDS011;27858;51.414;0.018;2022-11-09T20:46:09;5.53;;;2.15;;
42186;SDS011;27858;51.414;0.018;2022-11-09T20:48:41;4.05;;;1.63;;
42186;SDS011;27858;51.414;0.018;2022-11-09T20:51:20;7.45;;;2.25;;
42186;SDS011;27858;51.414;0.018;2022-11-09T20:53:48;10.05;;;3.30;;
42186;SDS011;27858;51.414;0.018;2022-11-09T20:56:16;12.80;;;3.35;;
42186;SDS011;27858;51.414;0.018;2022-11-09T20:58:44;14.40;;;2.85;;
42186;SDS011;27858;51.414;0.018;2022-11-09T21:03:38;7.50;;;2.80;;
42186;SDS011;27858;51.414;0.018;2022-11-09T21:06:06;9.98;;;2.15;;
42186;SDS011;27858;51.414;0.018;2022-11-09T21:08:33;7.68;;;1.92;;
42186;SDS011;27858;51.414;0.018;2022-11-09T21:11:01;7.82;;;1.75;;
42186;SDS011;27858;51.414;0.018;2022-11-09T21:13:30;8.75;;;2.50;;
42186;SDS011;27858;51.414;0.018;2022-11-09T21:16:06;10.82;;;2.65;;
42186;SDS011;27858;51.414;0.018;2022-11-09T21:18:35;9.65;;;3.10;;
42186;SDS011;27858;51.414;0.018;2022-11-09T21:23:33;15.13;;;3.53;;
42186;SDS011;27858;51.414;0.018;2022-11-09T21:26:20;5.60;;;1.77;;
42186;SDS011;27858;51.414;0.018;2022-11-09T21:29:07;7.50;;;2.80;;
42186;SDS011;27858;51.414;0.018;2022-11-09T21:31:56;5.97;;;2.17;;
42186;SDS011;27858;51.414;0.018;2022-11-09T21:34:23;13.98;;;2.88;;
42186;SDS011;27858;51.414;0.018;2022-11-09T21:36:50;8.02;;;2.55;;
42186;SDS011;27858;51.414;0.018;2022-11-09T21:39:17;11.95;;;2.78;;
42186;SDS011;27858;51.414;0.018;2022-11-09T21:41:44;10.15;;;1.80;;
42186;SDS011;27858;51.414;0.018;2022-11-09T21:44:12;6.03;;;1.98;;